createdAt,value
2018-07-24T00:00:43.141Z,0
2018-07-24T00:01:43.872Z,0
2018-07-24T00:02:44.655Z,0
2018-07-24T00:03:45.869Z,0
2018-07-24T00:04:46.673Z,0
2018-07-24T00:05:47.511Z,0
2018-07-24T00:06:48.287Z,0
2018-07-24T00:07:49.169Z,0
2018-07-24T00:08:49.968Z,0
2018-07-24T00:09:50.710Z,0
2018-07-24T00:10:51.765Z,0
2018-07-24T00:11:52.539Z,0
2018-07-24T00:12:53.405Z,0
2018-07-24T00:13:54.228Z,0
2018-07-24T00:14:55.124Z,0
2018-07-24T00:15:55.854Z,0
2018-07-24T00:16:56.685Z,0
2018-07-24T00:17:57.690Z,0
2018-07-24T00:18:58.415Z,0
2018-07-24T00:19:59.200Z,0
2018-07-24T00:21:00.188Z,0
2018-07-24T00:22:00.945Z,0
2018-07-24T00:23:01.780Z,0
2018-07-24T00:24:02.640Z,0
2018-07-24T00:25:03.879Z,0
2018-07-24T00:26:04.751Z,0
2018-07-24T00:27:05.865Z,0
2018-07-24T00:28:06.659Z,0
2018-07-24T00:29:07.668Z,0
2018-07-24T00:30:08.428Z,0
2018-07-24T00:31:09.159Z,0
2018-07-24T00:32:09.932Z,0
2018-07-24T00:33:10.760Z,0
2018-07-24T00:34:12.004Z,0
2018-07-24T00:35:12.757Z,0
2018-07-24T00:36:13.886Z,0
2018-07-24T00:37:14.994Z,0
2018-07-24T00:38:15.778Z,0
2018-07-24T00:39:16.753Z,0
2018-07-24T00:40:17.849Z,0
2018-07-24T00:41:19.035Z,0
2018-07-24T00:42:19.798Z,0
2018-07-24T00:43:20.926Z,0
2018-07-24T00:44:21.647Z,0
2018-07-24T00:45:22.362Z,0
2018-07-24T00:46:23.141Z,0
2018-07-24T00:47:23.877Z,0
2018-07-24T00:48:24.594Z,0
2018-07-24T00:49:25.326Z,0
2018-07-24T00:50:26.049Z,0
2018-07-24T00:51:26.822Z,0
2018-07-24T00:52:27.804Z,0
2018-07-24T00:53:28.789Z,0
2018-07-24T00:54:29.512Z,0
2018-07-24T00:55:30.490Z,0
2018-07-24T00:56:31.208Z,0
2018-07-24T00:57:31.948Z,0
2018-07-24T00:58:32.712Z,0
2018-07-24T00:59:33.435Z,0
2018-07-24T01:00:34.163Z,0
2018-07-24T01:01:34.903Z,0
2018-07-24T01:02:35.619Z,0
2018-07-24T01:03:36.331Z,0
2018-07-24T01:04:37.297Z,0
2018-07-24T01:05:38.022Z,0
2018-07-24T01:06:38.746Z,0
2018-07-24T01:07:39.479Z,0
2018-07-24T01:08:40.566Z,0
2018-07-24T01:09:41.225Z,0
2018-07-24T01:10:41.962Z,0
2018-07-24T01:11:42.684Z,0
2018-07-24T01:12:43.405Z,0
2018-07-24T01:13:44.133Z,0
2018-07-24T01:14:44.857Z,0
2018-07-24T01:15:45.584Z,0
2018-07-24T01:16:46.305Z,0
2018-07-24T01:17:47.035Z,0
2018-07-24T01:18:47.750Z,0
2018-07-24T01:19:48.728Z,0
2018-07-24T01:20:49.761Z,0
2018-07-24T01:21:50.488Z,0
2018-07-24T01:22:51.224Z,0
2018-07-24T01:23:52.198Z,0
2018-07-24T01:24:52.919Z,0
2018-07-24T01:25:53.638Z,0
2018-07-24T01:26:54.615Z,0
2018-07-24T01:27:55.333Z,0
2018-07-24T01:28:56.067Z,0
2018-07-24T01:29:56.788Z,0
2018-07-24T01:30:57.510Z,0
2018-07-24T01:31:58.828Z,0
2018-07-24T01:32:59.559Z,0
2018-07-24T01:34:00.278Z,0
2018-07-24T01:35:01.266Z,0
2018-07-24T01:36:01.984Z,0
2018-07-24T01:37:03.060Z,0
2018-07-24T01:38:03.782Z,0
2018-07-24T01:39:04.755Z,0
2018-07-24T01:40:05.479Z,0
2018-07-24T01:41:06.236Z,0
2018-07-24T01:42:06.963Z,0
2018-07-24T01:43:07.694Z,0
2018-07-24T01:44:08.418Z,0
2018-07-24T01:45:09.149Z,0
2018-07-24T01:46:09.873Z,0
2018-07-24T01:47:10.651Z,0
2018-07-24T01:48:11.367Z,0
2018-07-24T01:49:12.344Z,0
2018-07-24T01:50:13.064Z,0
2018-07-24T01:51:13.790Z,0
2018-07-24T01:52:14.508Z,0
2018-07-24T01:53:15.221Z,0
2018-07-24T01:54:16.188Z,0
2018-07-24T01:55:16.922Z,0
2018-07-24T01:56:17.655Z,0
2018-07-24T01:57:18.377Z,0
2018-07-24T01:58:19.102Z,0
2018-07-24T01:59:19.821Z,0
2018-07-24T02:00:20.539Z,0
2018-07-24T02:01:21.268Z,0
2018-07-24T02:02:21.999Z,0
2018-07-24T02:03:22.716Z,0
2018-07-24T02:04:23.739Z,0
2018-07-24T02:05:24.458Z,0
2018-07-24T02:06:25.202Z,0
2018-07-24T02:07:25.928Z,0
2018-07-24T02:08:26.656Z,0
2018-07-24T02:09:27.375Z,0
2018-07-24T02:10:28.159Z,0
2018-07-24T02:11:28.890Z,0
2018-07-24T02:12:29.622Z,0
2018-07-24T02:13:30.348Z,0
2018-07-24T02:14:31.065Z,0
2018-07-24T02:15:31.790Z,0
2018-07-24T02:16:32.772Z,0
2018-07-24T02:17:33.489Z,0
2018-07-24T02:18:34.210Z,0
2018-07-24T02:19:34.934Z,0
2018-07-24T02:20:35.922Z,0
2018-07-24T02:21:36.636Z,0
2018-07-24T02:22:37.366Z,0
2018-07-24T02:23:38.079Z,0
2018-07-24T02:24:39.066Z,0
2018-07-24T02:25:39.785Z,0
2018-07-24T02:26:40.815Z,0
2018-07-24T02:27:41.541Z,0
2018-07-24T02:28:42.516Z,0
2018-07-24T02:29:43.246Z,0
2018-07-24T02:30:43.968Z,0
2018-07-24T02:31:44.704Z,0
2018-07-24T02:32:45.409Z,0
2018-07-24T02:33:46.145Z,0
2018-07-24T02:34:46.873Z,0
2018-07-24T02:35:47.879Z,0
2018-07-24T02:36:48.606Z,0
2018-07-24T02:37:49.323Z,0
2018-07-24T02:38:50.051Z,0
2018-07-24T02:39:50.780Z,0
2018-07-24T02:40:51.521Z,0
2018-07-24T02:41:52.252Z,0
2018-07-24T02:42:53.022Z,0
2018-07-24T02:43:53.742Z,0
2018-07-24T02:44:54.468Z,0
2018-07-24T02:45:55.192Z,0
2018-07-24T02:46:55.922Z,0
2018-07-24T02:47:56.640Z,0
2018-07-24T02:48:57.612Z,0
2018-07-24T02:49:58.388Z,0
2018-07-24T02:50:59.106Z,4
2018-07-24T02:51:59.821Z,4
2018-07-24T02:53:00.550Z,0
2018-07-24T02:54:01.264Z,0
2018-07-24T02:55:01.986Z,4
2018-07-24T02:56:02.705Z,4
2018-07-24T02:57:03.685Z,4
2018-07-24T02:58:04.657Z,4
2018-07-24T02:59:05.632Z,8
2018-07-24T03:00:06.354Z,8
2018-07-24T03:01:07.077Z,4
2018-07-24T03:02:07.800Z,8
2018-07-24T03:03:08.540Z,12
2018-07-24T03:04:09.277Z,12
2018-07-24T03:05:10.249Z,12
2018-07-24T03:06:11.232Z,16
2018-07-24T03:07:11.946Z,20
2018-07-24T03:08:12.671Z,20
2018-07-24T03:09:13.401Z,24
2018-07-24T03:10:14.122Z,28
2018-07-24T03:11:14.840Z,28
2018-07-24T03:12:15.825Z,32
2018-07-24T03:13:16.590Z,40
2018-07-24T03:14:17.315Z,44
2018-07-24T03:15:18.040Z,48
2018-07-24T03:16:18.835Z,52
2018-07-24T03:17:19.506Z,60
2018-07-24T03:18:20.528Z,68
2018-07-24T03:19:21.264Z,76
2018-07-24T03:20:21.995Z,84
2018-07-24T03:21:22.973Z,96
2018-07-24T03:22:23.947Z,108
2018-07-24T03:23:24.714Z,120
2018-07-24T03:24:25.689Z,132
2018-07-24T03:25:26.415Z,144
2018-07-24T03:26:27.382Z,156
2018-07-24T03:27:28.110Z,172
2018-07-24T03:28:28.877Z,188
2018-07-24T03:29:29.605Z,208
2018-07-24T03:30:30.344Z,224
2018-07-24T03:31:31.074Z,244
2018-07-24T03:32:31.810Z,264
2018-07-24T03:33:32.543Z,284
2018-07-24T03:34:33.266Z,304
2018-07-24T03:35:33.996Z,328
2018-07-24T03:36:34.729Z,356
2018-07-24T03:37:35.697Z,380
2018-07-24T03:38:36.444Z,404
2018-07-24T03:39:37.171Z,432
2018-07-24T03:40:37.906Z,460
2018-07-24T03:41:38.632Z,488
2018-07-24T03:42:39.373Z,516
2018-07-24T03:43:40.096Z,544
2018-07-24T03:44:40.816Z,576
2018-07-24T03:45:41.598Z,608
2018-07-24T03:46:42.575Z,640
2018-07-24T03:47:43.302Z,676
2018-07-24T03:48:44.025Z,708
2018-07-24T03:49:44.753Z,740
2018-07-24T03:50:45.827Z,780
2018-07-24T03:51:46.804Z,812
2018-07-24T03:52:47.534Z,848
2018-07-24T03:53:48.263Z,884
2018-07-24T03:54:48.989Z,924
2018-07-24T03:55:49.710Z,960
2018-07-24T03:56:50.441Z,1000
2018-07-24T03:57:51.180Z,1036
2018-07-24T03:58:51.894Z,1076
2018-07-24T03:59:52.613Z,1112
2018-07-24T04:00:53.339Z,1152
2018-07-24T04:01:54.317Z,1192
2018-07-24T04:02:55.043Z,1228
2018-07-24T04:03:55.775Z,1268
2018-07-24T04:04:56.565Z,1304
2018-07-24T04:05:57.297Z,1344
2018-07-24T04:06:58.028Z,1384
2018-07-24T04:07:58.755Z,1420
2018-07-24T04:08:59.479Z,1456
2018-07-24T04:10:00.203Z,1492
2018-07-24T04:11:00.937Z,1532
2018-07-24T04:12:01.671Z,1568
2018-07-24T04:13:02.407Z,1604
2018-07-24T04:14:03.141Z,1640
2018-07-24T04:15:04.222Z,1676
2018-07-24T04:16:04.945Z,1716
2018-07-24T04:17:05.679Z,1748
2018-07-24T04:18:06.402Z,1788
2018-07-24T04:19:07.131Z,1824
2018-07-24T04:20:08.161Z,1864
2018-07-24T04:21:08.881Z,1900
2018-07-24T04:22:09.600Z,1936
2018-07-24T04:23:10.326Z,1972
2018-07-24T04:24:11.045Z,2012
2018-07-24T04:25:11.823Z,2048
2018-07-24T04:26:12.580Z,2080
2018-07-24T04:27:13.300Z,2116
2018-07-24T04:28:14.032Z,2148
2018-07-24T04:29:14.751Z,2184
2018-07-24T04:30:15.486Z,2220
2018-07-24T04:31:16.211Z,2248
2018-07-24T04:32:16.955Z,2284
2018-07-24T04:33:17.681Z,2320
2018-07-24T04:34:18.410Z,2356
2018-07-24T04:35:19.144Z,2392
2018-07-24T04:36:19.861Z,2420
2018-07-24T04:37:20.600Z,2460
2018-07-24T04:38:21.329Z,2492
2018-07-24T04:39:22.306Z,2528
2018-07-24T04:40:23.045Z,2560
2018-07-24T04:41:23.766Z,2600
2018-07-24T04:42:24.497Z,2632
2018-07-24T04:43:25.223Z,2664
2018-07-24T04:44:26.199Z,2696
2018-07-24T04:45:27.300Z,2724
2018-07-24T04:46:28.039Z,2752
2018-07-24T04:47:28.769Z,2784
2018-07-24T04:48:29.542Z,2812
2018-07-24T04:49:30.244Z,2844
2018-07-24T04:50:31.227Z,2880
2018-07-24T04:51:31.955Z,2912
2018-07-24T04:52:32.738Z,2948
2018-07-24T04:53:33.468Z,2980
2018-07-24T04:54:34.194Z,3016
2018-07-24T04:55:34.927Z,3052
2018-07-24T04:56:35.655Z,3088
2018-07-24T04:57:36.394Z,3120
2018-07-24T04:58:37.133Z,3152
2018-07-24T04:59:37.859Z,3188
2018-07-24T05:00:38.580Z,3216
2018-07-24T05:01:39.306Z,3244
2018-07-24T05:02:40.087Z,3276
2018-07-24T05:03:40.772Z,3308
2018-07-24T05:04:41.504Z,3348
2018-07-24T05:05:42.243Z,3392
2018-07-24T05:06:42.974Z,3440
2018-07-24T05:07:43.702Z,3484
2018-07-24T05:08:44.482Z,3532
2018-07-24T05:09:45.211Z,3572
2018-07-24T05:10:46.193Z,3612
2018-07-24T05:11:46.917Z,3648
2018-07-24T05:12:47.649Z,3684
2018-07-24T05:13:48.414Z,3720
2018-07-24T05:14:49.389Z,3780
2018-07-24T05:15:50.125Z,3796
2018-07-24T05:16:50.920Z,3844
2018-07-24T05:17:51.575Z,3880
2018-07-24T05:18:52.307Z,3916
2018-07-24T05:19:53.310Z,3960
2018-07-24T05:20:54.035Z,4004
2018-07-24T05:21:54.768Z,4048
2018-07-24T05:22:55.841Z,4196
2018-07-24T05:23:56.571Z,4568
2018-07-24T05:24:57.303Z,5324
2018-07-24T05:25:58.147Z,5228
2018-07-24T05:26:58.750Z,4660
2018-07-24T05:27:59.526Z,5068
2018-07-24T05:29:00.250Z,7584
2018-07-24T05:30:00.984Z,7852
2018-07-24T05:31:01.966Z,6420
2018-07-24T05:32:02.684Z,6320
2018-07-24T05:33:03.464Z,6128
2018-07-24T05:34:04.533Z,6928
2018-07-24T05:35:05.461Z,5824
2018-07-24T05:36:06.531Z,6504
2018-07-24T05:37:07.344Z,7252
2018-07-24T05:38:08.116Z,6484
2018-07-24T05:39:08.865Z,7560
2018-07-24T05:40:09.591Z,8492
2018-07-24T05:41:10.316Z,6956
2018-07-24T05:42:11.065Z,9544
2018-07-24T05:43:11.797Z,8936
2018-07-24T05:44:12.791Z,8196
2018-07-24T05:45:13.529Z,5240
2018-07-24T05:46:14.255Z,6444
2018-07-24T05:47:15.042Z,7572
2018-07-24T05:48:15.764Z,9708
2018-07-24T05:49:16.775Z,11972
2018-07-24T05:50:17.515Z,6192
2018-07-24T05:51:18.245Z,5476
2018-07-24T05:52:19.292Z,7152
2018-07-24T05:53:20.026Z,7208
2018-07-24T05:54:20.764Z,7344
2018-07-24T05:55:21.485Z,9188
2018-07-24T05:56:22.212Z,7400
2018-07-24T05:57:22.999Z,6356
2018-07-24T05:58:23.739Z,5984
2018-07-24T05:59:24.472Z,5400
2018-07-24T06:00:25.207Z,5492
2018-07-24T06:01:25.952Z,5532
2018-07-24T06:02:26.725Z,5496
2018-07-24T06:03:27.464Z,5508
2018-07-24T06:04:28.206Z,5532
2018-07-24T06:05:28.942Z,5584
2018-07-24T06:06:29.678Z,5780
2018-07-24T06:07:30.757Z,5612
2018-07-24T06:08:31.496Z,5636
2018-07-24T06:09:32.237Z,5656
2018-07-24T06:10:32.972Z,5704
2018-07-24T06:11:33.716Z,5728
2018-07-24T06:12:34.516Z,5756
2018-07-24T06:13:35.248Z,5800
2018-07-24T06:14:35.977Z,5952
2018-07-24T06:15:36.703Z,6920
2018-07-24T06:16:37.480Z,5920
2018-07-24T06:17:38.231Z,5932
2018-07-24T06:18:39.473Z,6016
2018-07-24T06:19:40.194Z,6036
2018-07-24T06:20:40.933Z,6116
2018-07-24T06:21:41.694Z,9276
2018-07-24T06:22:42.467Z,10528
2018-07-24T06:23:43.233Z,7444
2018-07-24T06:24:43.961Z,8344
2018-07-24T06:25:44.687Z,8616
2018-07-24T06:26:45.423Z,6744
2018-07-24T06:27:46.174Z,6948
2018-07-24T06:28:46.922Z,7380
2018-07-24T06:29:48.257Z,7232
2018-07-24T06:30:49.002Z,6392
2018-07-24T06:31:49.724Z,6412
2018-07-24T06:32:50.703Z,6424
2018-07-24T06:33:51.444Z,6720
2018-07-24T06:34:52.169Z,6352
2018-07-24T06:35:52.905Z,6348
2018-07-24T06:36:53.638Z,6368
2018-07-24T06:37:54.366Z,6384
2018-07-24T06:38:55.090Z,6440
2018-07-24T06:39:55.881Z,6556
2018-07-24T06:40:56.611Z,6592
2018-07-24T06:41:57.356Z,6564
2018-07-24T06:42:58.089Z,6896
2018-07-24T06:43:58.837Z,6808
2018-07-24T06:44:59.622Z,6876
2018-07-24T06:46:00.362Z,8472
2018-07-24T06:47:01.096Z,9196
2018-07-24T06:48:01.828Z,6708
2018-07-24T06:49:02.564Z,6720
2018-07-24T06:50:03.342Z,6740
2018-07-24T06:51:04.137Z,6760
2018-07-24T06:52:04.889Z,6776
2018-07-24T06:53:05.574Z,6824
2018-07-24T06:54:06.309Z,6840
2018-07-24T06:55:07.100Z,6864
2018-07-24T06:56:07.843Z,8128
2018-07-24T06:57:08.582Z,8092
2018-07-24T06:58:09.333Z,7628
2018-07-24T06:59:10.060Z,7156
2018-07-24T07:00:11.042Z,7080
2018-07-24T07:01:11.781Z,7116
2018-07-24T07:02:12.547Z,7152
2018-07-24T07:03:13.263Z,7248
2018-07-24T07:04:13.999Z,9180
2018-07-24T07:05:14.811Z,7364
2018-07-24T07:06:15.480Z,7312
2018-07-24T07:07:16.260Z,7764
2018-07-24T07:08:17.003Z,7356
2018-07-24T07:09:17.729Z,7376
2018-07-24T07:10:18.503Z,7404
2018-07-24T07:11:19.203Z,8272
2018-07-24T07:12:20.185Z,7452
2018-07-24T07:13:21.010Z,7488
2018-07-24T07:14:21.664Z,13112
2018-07-24T07:15:22.406Z,12796
2018-07-24T07:16:23.132Z,11476
2018-07-24T07:17:23.871Z,10372
2018-07-24T07:18:24.601Z,10052
2018-07-24T07:19:25.329Z,19328
2018-07-24T07:20:26.096Z,16100
2018-07-24T07:21:26.806Z,8852
2018-07-24T07:22:27.546Z,12056
2018-07-24T07:23:28.320Z,8192
2018-07-24T07:24:29.033Z,19456
2018-07-24T07:25:29.767Z,39808
2018-07-24T07:26:30.510Z,28256
2018-07-24T07:27:31.573Z,34880
2018-07-24T07:28:32.301Z,47200
2018-07-24T07:29:33.043Z,56192
2018-07-24T07:30:33.762Z,58624
2018-07-24T07:31:34.493Z,59712
2018-07-24T07:32:35.260Z,61088
2018-07-24T07:33:35.956Z,51392
2018-07-24T07:34:36.689Z,47200
2018-07-24T07:35:37.672Z,57120
2018-07-24T07:36:38.659Z,52736
2018-07-24T07:37:39.756Z,44512
2018-07-24T07:38:40.545Z,45408
2018-07-24T07:39:41.334Z,22336
2018-07-24T07:40:42.066Z,41632
2018-07-24T07:41:42.802Z,46944
2018-07-24T07:42:43.540Z,53408
2018-07-24T07:43:44.272Z,57856
2018-07-24T07:44:45.250Z,61376
2018-07-24T07:45:45.986Z,65152
2018-07-24T07:46:46.721Z,68832
2018-07-24T07:47:47.469Z,70560
2018-07-24T07:48:48.206Z,67488
2018-07-24T07:49:48.937Z,63456
2018-07-24T07:50:49.669Z,62880
2018-07-24T07:51:50.410Z,66240
2018-07-24T07:52:51.155Z,68704
2018-07-24T07:53:51.888Z,66624
2018-07-24T07:54:52.624Z,64704
2018-07-24T07:55:53.360Z,66176
2018-07-24T07:56:54.100Z,67328
2018-07-24T07:57:54.842Z,66688
2018-07-24T07:58:55.576Z,65344
2018-07-24T07:59:56.321Z,64416
2018-07-24T08:00:57.059Z,66048
2018-07-24T08:01:57.812Z,69664
2018-07-24T08:02:58.890Z,70976
2018-07-24T08:03:59.661Z,69056
2018-07-24T08:05:00.421Z,67392
2018-07-24T08:06:01.148Z,67616
2018-07-24T08:07:01.882Z,66880
2018-07-24T08:08:02.628Z,64672
2018-07-24T08:09:03.360Z,64224
2018-07-24T08:10:04.143Z,67104
2018-07-24T08:11:04.884Z,71136
2018-07-24T08:12:05.619Z,74976
2018-07-24T08:13:06.370Z,77216
2018-07-24T08:14:07.150Z,76096
2018-07-24T08:15:07.848Z,73760
2018-07-24T08:16:08.586Z,72480
2018-07-24T08:17:09.323Z,72480
2018-07-24T08:18:10.114Z,72128
2018-07-24T08:19:10.853Z,72320
2018-07-24T08:20:11.581Z,73568
2018-07-24T08:21:12.328Z,74176
2018-07-24T08:22:13.065Z,72864
2018-07-24T08:23:13.840Z,72224
2018-07-24T08:24:14.579Z,70496
2018-07-24T08:25:15.316Z,70592
2018-07-24T08:26:16.064Z,71488
2018-07-24T08:27:16.803Z,73120
2018-07-24T08:28:17.537Z,74176
2018-07-24T08:29:18.293Z,73152
2018-07-24T08:30:19.027Z,72000
2018-07-24T08:31:19.779Z,71968
2018-07-24T08:32:20.517Z,72672
2018-07-24T08:33:21.275Z,72640
2018-07-24T08:34:22.264Z,71904
2018-07-24T08:35:23.263Z,72224
2018-07-24T08:36:24.079Z,72672
2018-07-24T08:37:24.830Z,73440
2018-07-24T08:38:25.626Z,73792
2018-07-24T08:39:26.378Z,74880
2018-07-24T08:40:27.113Z,76768
2018-07-24T08:41:27.844Z,80896
2018-07-24T08:42:28.600Z,84928
2018-07-24T08:43:29.381Z,83904
2018-07-24T08:44:30.116Z,76032
2018-07-24T08:45:30.858Z,67968
2018-07-24T08:46:31.593Z,63584
2018-07-24T08:47:32.328Z,64416
2018-07-24T08:48:33.114Z,69088
2018-07-24T08:49:33.882Z,73248
2018-07-24T08:50:34.635Z,71872
2018-07-24T08:51:35.386Z,68576
2018-07-24T08:52:36.137Z,68160
2018-07-24T08:53:37.247Z,70944
2018-07-24T08:54:37.763Z,73760
2018-07-24T08:55:38.609Z,72736
2018-07-24T08:56:39.082Z,72832
2018-07-24T08:57:39.853Z,75392
2018-07-24T08:58:40.564Z,77344
2018-07-24T08:59:41.306Z,80352
2018-07-24T09:00:42.056Z,81088
2018-07-24T09:01:42.837Z,80896
2018-07-24T09:02:43.588Z,80224
2018-07-24T09:03:44.358Z,78400
2018-07-24T09:04:45.073Z,80832
2018-07-24T09:05:46.059Z,85536
2018-07-24T09:06:46.844Z,88512
2018-07-24T09:07:47.617Z,87264
2018-07-24T09:08:48.412Z,85184
2018-07-24T09:09:49.171Z,84832
2018-07-24T09:10:49.903Z,86048
2018-07-24T09:11:50.639Z,85280
2018-07-24T09:12:51.384Z,85312
2018-07-24T09:13:52.128Z,87264
2018-07-24T09:14:52.879Z,88064
2018-07-24T09:15:53.621Z,87616
2018-07-24T09:16:54.614Z,88000
2018-07-24T09:17:55.396Z,88480
2018-07-24T09:18:56.136Z,88160
2018-07-24T09:19:56.879Z,88192
2018-07-24T09:20:57.679Z,88224
2018-07-24T09:21:58.380Z,87808
2018-07-24T09:22:59.147Z,88416
2018-07-24T09:23:59.881Z,90336
2018-07-24T09:25:00.623Z,90176
2018-07-24T09:26:01.416Z,90112
2018-07-24T09:27:02.165Z,88000
2018-07-24T09:28:03.208Z,89248
2018-07-24T09:29:03.996Z,90784
2018-07-24T09:30:04.752Z,90624
2018-07-24T09:31:05.621Z,90464
2018-07-24T09:32:06.367Z,88960
2018-07-24T09:33:07.459Z,88928
2018-07-24T09:34:08.206Z,88960
2018-07-24T09:35:08.954Z,86272
2018-07-24T09:36:09.694Z,84800
2018-07-24T09:37:10.443Z,86528
2018-07-24T09:38:11.550Z,90464
2018-07-24T09:39:12.293Z,91296
2018-07-24T09:40:13.046Z,88480
2018-07-24T09:41:13.795Z,83840
2018-07-24T09:42:14.538Z,83968
2018-07-24T09:43:15.394Z,86464
2018-07-24T09:44:16.132Z,89824
2018-07-24T09:45:16.870Z,90720
2018-07-24T09:46:17.613Z,89024
2018-07-24T09:47:18.365Z,87232
2018-07-24T09:48:19.149Z,87520
2018-07-24T09:49:20.014Z,91296
2018-07-24T09:50:20.743Z,94976
2018-07-24T09:51:21.492Z,95904
2018-07-24T09:52:22.240Z,97920
2018-07-24T09:53:22.976Z,100000
2018-07-24T09:54:23.725Z,101312
2018-07-24T09:55:24.465Z,103008
2018-07-24T09:56:25.211Z,100928
2018-07-24T09:57:25.941Z,96448
2018-07-24T09:58:26.680Z,93184
2018-07-24T09:59:27.505Z,91680
2018-07-24T10:00:28.185Z,91904
2018-07-24T10:01:28.953Z,90784
2018-07-24T10:02:29.742Z,89408
2018-07-24T10:03:30.515Z,90240
2018-07-24T10:04:31.251Z,92160
2018-07-24T10:05:32.866Z,92608
2018-07-24T10:06:33.618Z,92576
2018-07-24T10:07:34.715Z,91680
2018-07-24T10:08:35.458Z,90112
2018-07-24T10:09:36.208Z,88160
2018-07-24T10:10:36.949Z,88864
2018-07-24T10:11:37.681Z,89536
2018-07-24T10:12:38.440Z,91872
2018-07-24T10:13:39.163Z,96256
2018-07-24T10:14:39.904Z,99520
2018-07-24T10:15:40.647Z,102432
2018-07-24T10:16:41.706Z,103456
2018-07-24T10:17:42.391Z,102176
2018-07-24T10:18:43.412Z,99904
2018-07-24T10:19:44.127Z,97088
2018-07-24T10:20:44.862Z,93216
2018-07-24T10:21:45.596Z,88000
2018-07-24T10:22:46.685Z,87168
2018-07-24T10:23:47.439Z,87328
2018-07-24T10:24:48.181Z,87968
2018-07-24T10:25:49.168Z,87968
2018-07-24T10:26:49.910Z,86816
2018-07-24T10:27:50.662Z,86464
2018-07-24T10:28:51.409Z,87200
2018-07-24T10:29:52.157Z,87936
2018-07-24T10:30:52.892Z,89344
2018-07-24T10:31:53.633Z,89632
2018-07-24T10:32:54.429Z,88928
2018-07-24T10:33:55.172Z,87744
2018-07-24T10:34:55.932Z,87328
2018-07-24T10:35:56.672Z,86944
2018-07-24T10:36:57.416Z,88352
2018-07-24T10:37:58.163Z,88512
2018-07-24T10:38:58.910Z,87680
2018-07-24T10:39:59.660Z,86944
2018-07-24T10:41:00.418Z,85888
2018-07-24T10:42:01.149Z,86880
2018-07-24T10:43:01.927Z,88576
2018-07-24T10:44:02.634Z,90112
2018-07-24T10:45:03.365Z,90144
2018-07-24T10:46:04.164Z,90528
2018-07-24T10:47:04.906Z,91232
2018-07-24T10:48:05.647Z,92992
2018-07-24T10:49:06.400Z,93408
2018-07-24T10:50:07.144Z,93120
2018-07-24T10:51:07.935Z,91520
2018-07-24T10:52:08.702Z,91808
2018-07-24T10:53:09.442Z,94240
2018-07-24T10:54:10.182Z,96960
2018-07-24T10:55:10.941Z,97504
2018-07-24T10:56:11.697Z,98208
2018-07-24T10:57:12.478Z,98528
2018-07-24T10:58:13.214Z,98912
2018-07-24T10:59:13.985Z,99232
2018-07-24T11:00:14.731Z,98080
2018-07-24T11:01:15.467Z,95776
2018-07-24T11:02:16.212Z,91488
2018-07-24T11:03:16.960Z,88544
2018-07-24T11:04:17.895Z,89664
2018-07-24T11:05:18.671Z,93536
2018-07-24T11:06:19.378Z,96896
2018-07-24T11:07:20.180Z,99040
2018-07-24T11:08:20.925Z,101280
2018-07-24T11:09:21.673Z,103520
2018-07-24T11:10:22.411Z,103488
2018-07-24T11:11:23.147Z,103872
2018-07-24T11:12:24.921Z,105952
2018-07-24T11:13:25.674Z,107136
2018-07-24T11:14:26.411Z,105696
2018-07-24T11:15:27.144Z,103744
2018-07-24T11:16:27.908Z,102368
2018-07-24T11:17:28.649Z,98304
2018-07-24T11:18:29.389Z,94688
2018-07-24T11:19:30.127Z,93152
2018-07-24T11:20:30.887Z,95744
2018-07-24T11:21:31.626Z,97920
2018-07-24T11:22:32.498Z,102304
2018-07-24T11:23:33.102Z,102976
2018-07-24T11:24:33.843Z,103616
2018-07-24T11:25:34.588Z,101600
2018-07-24T11:26:35.581Z,101632
2018-07-24T11:27:36.329Z,102688
2018-07-24T11:28:37.079Z,103520
2018-07-24T11:29:37.827Z,102208
2018-07-24T11:30:38.917Z,101120
2018-07-24T11:31:39.662Z,99808
2018-07-24T11:32:40.674Z,98080
2018-07-24T11:33:41.410Z,97792
2018-07-24T11:34:42.146Z,98304
2018-07-24T11:35:43.043Z,98656
2018-07-24T11:36:43.642Z,100096
2018-07-24T11:37:44.388Z,100064
2018-07-24T11:38:45.133Z,101984
2018-07-24T11:39:45.956Z,101792
2018-07-24T11:40:46.695Z,101696
2018-07-24T11:41:47.441Z,101600
2018-07-24T11:42:48.186Z,101152
2018-07-24T11:43:48.936Z,103616
2018-07-24T11:44:49.676Z,106112
2018-07-24T11:45:50.482Z,105600
2018-07-24T11:46:51.225Z,103200
2018-07-24T11:47:51.967Z,101024
2018-07-24T11:48:52.708Z,102880
2018-07-24T11:49:53.462Z,105216
2018-07-24T11:50:54.475Z,105568
2018-07-24T11:51:55.220Z,102304
2018-07-24T11:52:55.959Z,100544
2018-07-24T11:53:56.698Z,100032
2018-07-24T11:54:57.446Z,101824
2018-07-24T11:55:58.189Z,103424
2018-07-24T11:56:58.939Z,102752
2018-07-24T11:57:59.747Z,100864
2018-07-24T11:59:00.750Z,99584
2018-07-24T12:00:01.739Z,98976
2018-07-24T12:01:02.486Z,99680
2018-07-24T12:02:03.475Z,100384
2018-07-24T12:03:04.263Z,101728
2018-07-24T12:04:05.026Z,102656
2018-07-24T12:05:05.764Z,102528
2018-07-24T12:06:06.516Z,101088
2018-07-24T12:07:07.264Z,102528
2018-07-24T12:08:08.075Z,103360
2018-07-24T12:09:08.822Z,103456
2018-07-24T12:10:09.562Z,102368
2018-07-24T12:11:10.303Z,100960
2018-07-24T12:12:11.049Z,99744
2018-07-24T12:13:11.798Z,99904
2018-07-24T12:14:12.549Z,100128
2018-07-24T12:15:13.323Z,98784
2018-07-24T12:16:14.047Z,97344
2018-07-24T12:17:14.796Z,95840
2018-07-24T12:18:15.547Z,95680
2018-07-24T12:19:16.301Z,94848
2018-07-24T12:20:17.062Z,94592
2018-07-24T12:21:17.798Z,92448
2018-07-24T12:22:18.545Z,90880
2018-07-24T12:23:19.280Z,88544
2018-07-24T12:24:20.032Z,85184
2018-07-24T12:25:20.767Z,83104
2018-07-24T12:26:21.520Z,83680
2018-07-24T12:27:22.271Z,85440
2018-07-24T12:28:23.022Z,87520
2018-07-24T12:29:23.766Z,88704
2018-07-24T12:30:24.502Z,90944
2018-07-24T12:31:25.248Z,90112
2018-07-24T12:32:26.006Z,89888
2018-07-24T12:33:26.751Z,88320
2018-07-24T12:34:27.556Z,86208
2018-07-24T12:35:28.301Z,82912
2018-07-24T12:36:29.044Z,79072
2018-07-24T12:37:29.793Z,74816
2018-07-24T12:38:30.540Z,76864
2018-07-24T12:39:31.285Z,81248
2018-07-24T12:40:32.035Z,86080
2018-07-24T12:41:32.776Z,90432
2018-07-24T12:42:33.527Z,88448
2018-07-24T12:43:34.328Z,86208
2018-07-24T12:44:35.039Z,84896
2018-07-24T12:45:35.802Z,85312
2018-07-24T12:46:36.546Z,85280
2018-07-24T12:47:37.300Z,87712
2018-07-24T12:48:38.055Z,88096
2018-07-24T12:49:38.796Z,92352
2018-07-24T12:50:39.547Z,95680
2018-07-24T12:51:40.275Z,100224
2018-07-24T12:52:41.028Z,103392
2018-07-24T12:53:41.770Z,104384
2018-07-24T12:54:42.576Z,101216
2018-07-24T12:55:43.567Z,94496
2018-07-24T12:56:44.315Z,87200
2018-07-24T12:57:45.090Z,82336
2018-07-24T12:58:45.840Z,83040
2018-07-24T12:59:46.594Z,84768
2018-07-24T13:00:47.342Z,86016
2018-07-24T13:01:48.093Z,87232
2018-07-24T13:02:48.840Z,84224
2018-07-24T13:03:49.606Z,81344
2018-07-24T13:04:50.342Z,80096
2018-07-24T13:05:51.103Z,84928
2018-07-24T13:06:51.937Z,92320
2018-07-24T13:07:52.661Z,98784
2018-07-24T13:08:53.419Z,101792
2018-07-24T13:09:54.188Z,100544
2018-07-24T13:10:55.028Z,95488
2018-07-24T13:11:55.719Z,86688
2018-07-24T13:12:56.468Z,79488
2018-07-24T13:13:57.475Z,75936
2018-07-24T13:14:58.212Z,77152
2018-07-24T13:15:59.221Z,80160
2018-07-24T13:16:59.957Z,81920
2018-07-24T13:18:00.716Z,83520
2018-07-24T13:19:01.715Z,84096
2018-07-24T13:20:02.462Z,84928
2018-07-24T13:21:03.211Z,85536
2018-07-24T13:22:04.221Z,86208
2018-07-24T13:23:05.303Z,85568
2018-07-24T13:24:06.485Z,85344
2018-07-24T13:25:07.228Z,86624
2018-07-24T13:26:07.960Z,88128
2018-07-24T13:27:08.706Z,89696
2018-07-24T13:28:09.459Z,87808
2018-07-24T13:29:10.216Z,85920
2018-07-24T13:30:11.209Z,85024
2018-07-24T13:31:11.963Z,84128
2018-07-24T13:32:12.800Z,81920
2018-07-24T13:33:13.467Z,81408
2018-07-24T13:34:14.210Z,81888
2018-07-24T13:35:14.985Z,81088